Time;durP1;ratioP1;P1;durP2;ratioP2;P2;SDS_P1;SDS_P2;PMS_P1;PMS_P2;Temp;Humidity;BMP_temperature;BMP_pressure;BME280_temperature;BME280_humidity;BME280_pressure;Samples;Min_cycle;Max_cycle;Signal;HPM_P1;HPM_P2
2022/01/06 00:00:32;;;;;;;4.30;0.50;;;3.60;95.40;;;;;;5090402;27;20044;-72
2022/01/06 00:02:59;;;;;;;4.07;0.60;;;3.60;95.40;;;;;;5097401;27;20776;-72
2022/01/06 00:05:26;;;;;;;3.70;0.82;;;3.60;95.40;;;;;;5078624;27;20036;-75
2022/01/06 00:07:54;;;;;;;4.90;0.80;;;3.60;95.40;;;;;;5080780;27;20511;-75
2022/01/06 00:10:28;;;;;;;4.47;0.50;;;3.50;95.40;;;;;;5087028;27;20096;-75
2022/01/06 06:34:45;;;;;;;2.00;0.30;;;2.30;95.30;;;;;;4947041;28;20407;-74
2022/01/06 06:37:12;;;;;;;2.50;0.50;;;2.30;95.40;;;;;;4934935;28;20118;-74
2022/01/06 06:39:43;;;;;;;2.15;0.30;;;2.40;95.40;;;;;;5210459;22;20068;31
2022/01/06 06:42:10;;;;;;;3.00;0.28;;;2.40;95.40;;;;;;5095248;22;19932;-74
2022/01/06 06:44:37;;;;;;;2.38;0.30;;;2.30;95.40;;;;;;5016443;28;20575;-73
2022/01/06 06:47:08;;;;;;;2.72;0.30;;;2.30;95.40;;;;;;4966927;28;20046;-74
2022/01/06 06:49:36;;;;;;;1.67;0.20;;;2.30;95.40;;;;;;4981575;28;20049;-73
2022/01/06 06:52:04;;;;;;;0.85;0.20;;;2.30;95.40;;;;;;4980528;28;20076;-71
2022/01/06 06:54:31;;;;;;;0.20;0.10;;;2.30;95.40;;;;;;5014422;28;20057;-71
2022/01/06 06:56:59;;;;;;;0.80;0.20;;;2.30;95.40;;;;;;4980962;28;20038;-71
2022/01/06 06:59:26;;;;;;;0.57;0.10;;;2.30;95.40;;;;;;5014447;28;20100;-72
2022/01/06 07:01:53;;;;;;;1.58;0.20;;;2.30;95.50;;;;;;4996983;28;20042;-71
2022/01/06 07:04:20;;;;;;;1.13;0.20;;;2.30;95.50;;;;;;4997169;28;20481;-71
2022/01/06 07:07:10;;;;;;;1.52;0.10;;;2.30;95.40;;;;;;4999829;28;20129;-72
2022/01/06 07:09:37;;;;;;;0.95;0.15;;;2.30;95.50;;;;;;4980497;28;20508;-71
2022/01/06 07:12:04;;;;;;;0.98;0.20;;;2.30;95.50;;;;;;4996343;28;20073;-71
2022/01/06 07:14:31;;;;;;;1.65;0.10;;;2.20;95.50;;;;;;4948434;28;20080;-71
2022/01/06 07:16:59;;;;;;;0.68;0.10;;;2.20;95.50;;;;;;4980241;28;20049;-71
2022/01/06 07:19:26;;;;;;;0.47;0.10;;;2.20;95.50;;;;;;4996404;28;20041;-71
2022/01/06 07:21:53;;;;;;;0.40;0.10;;;2.20;95.50;;;;;;5013918;28;20037;-71
2022/01/06 07:24:20;;;;;;;1.75;0.10;;;2.10;95.50;;;;;;4980212;28;20758;-71
2022/01/06 07:26:47;;;;;;;1.40;0.20;;;2.10;95.50;;;;;;4996371;28;20444;-73
2022/01/06 07:29:16;;;;;;;0.50;0.10;;;2.10;95.50;;;;;;4966443;28;20054;-74
2022/01/06 07:31:46;;;;;;;1.42;0.10;;;2.10;95.50;;;;;;4997309;28;20625;-75
2022/01/06 07:34:13;;;;;;;0.13;0.08;;;2.00;95.50;;;;;;4996441;28;20041;-74
2022/01/06 07:36:40;;;;;;;1.20;0.10;;;2.00;95.50;;;;;;4996475;28;20129;-74
2022/01/06 07:39:07;;;;;;;1.38;0.10;;;2.00;95.50;;;;;;4979905;28;20066;-74
2022/01/06 07:41:36;;;;;;;0.90;0.10;;;2.00;95.60;;;;;;5000944;28;20050;-74
2022/01/06 07:44:07;;;;;;;0.68;0.20;;;1.90;95.60;;;;;;4996347;28;20367;-74
2022/01/06 07:46:35;;;;;;;0.55;0.10;;;1.90;95.60;;;;;;4980970;28;20053;-74
2022/01/06 07:49:03;;;;;;;0.73;0.30;;;1.90;95.60;;;;;;5013962;28;20467;-74
2022/01/06 07:51:31;;;;;;;0.70;0.10;;;1.90;95.60;;;;;;4996353;28;20050;-74
2022/01/06 07:53:59;;;;;;;0.83;0.10;;;1.90;95.60;;;;;;4980231;28;20077;-74
2022/01/06 07:56:27;;;;;;;0.63;0.10;;;1.90;95.60;;;;;;5012742;28;20408;-74
2022/01/06 07:58:54;;;;;;;0.52;0.10;;;1.90;95.60;;;;;;4995856;28;20048;-75
2022/01/06 08:01:21;;;;;;;0.77;0.10;;;1.90;95.70;;;;;;5013592;28;20037;-74
2022/01/06 08:03:49;;;;;;;1.58;0.10;;;1.90;95.60;;;;;;4996450;28;20058;-74
2022/01/06 08:06:16;;;;;;;0.90;0.13;;;1.90;95.60;;;;;;4996147;28;20460;-74
2022/01/06 08:08:45;;;;;;;0.35;0.10;;;1.80;95.60;;;;;;4995934;28;20092;-74
2022/01/06 08:11:13;;;;;;;0.65;0.10;;;1.80;95.60;;;;;;4980111;28;20046;-75
2022/01/06 08:13:40;;;;;;;0.57;0.10;;;1.80;95.60;;;;;;4996447;28;20481;-75
2022/01/06 08:16:08;;;;;;;0.38;0.10;;;1.80;95.60;;;;;;4996245;28;20099;-74
2022/01/06 08:18:35;;;;;;;1.42;0.20;;;1.80;95.60;;;;;;4995505;28;20050;-74
2022/01/06 08:21:04;;;;;;;1.23;0.10;;;1.80;95.90;;;;;;4995923;28;20444;-76
2022/01/06 08:23:31;;;;;;;0.43;0.10;;;1.80;95.60;;;;;;4995719;28;20042;-75
2022/01/06 08:25:58;;;;;;;0.32;0.10;;;1.80;95.70;;;;;;4995423;28;20045;-75
2022/01/06 08:28:25;;;;;;;1.85;0.17;;;1.80;95.60;;;;;;4979652;28;20046;-76
2022/01/06 08:30:52;;;;;;;0.65;0.10;;;1.80;95.60;;;;;;5012067;28;20041;-74
2022/01/06 08:33:19;;;;;;;0.47;0.10;;;1.90;95.70;;;;;;5013158;28;20103;-74
2022/01/06 08:35:47;;;;;;;0.50;0.10;;;1.80;95.70;;;;;;4995839;28;20042;-75
2022/01/06 08:38:15;;;;;;;0.40;0.10;;;1.90;95.70;;;;;;4979806;28;20042;-77
2022/01/06 08:40:42;;;;;;;0.20;0.10;;;1.90;95.60;;;;;;5011840;28;20046;-76
2022/01/06 08:43:09;;;;;;;1.73;0.10;;;1.90;95.60;;;;;;4995825;28;20080;-76
2022/01/06 08:45:37;;;;;;;1.20;0.10;;;1.90;95.60;;;;;;4995916;28;20046;-76
2022/01/06 08:48:04;;;;;;;1.70;0.20;;;1.90;95.60;;;;;;4979584;28;20052;-74
2022/01/06 08:50:32;;;;;;;0.80;0.30;;;1.90;95.60;;;;;;4995576;28;20046;-75
2022/01/06 08:52:59;;;;;;;0.73;0.17;;;1.90;95.50;;;;;;4963533;28;20081;-75
2022/01/06 08:55:26;;;;;;;2.20;0.40;;;1.90;95.60;;;;;;5012771;28;20386;-76
2022/01/06 08:57:57;;;;;;;1.45;0.28;;;2.00;95.60;;;;;;4978966;28;20041;-76
2022/01/06 09:00:24;;;;;;;1.35;0.28;;;2.00;95.60;;;;;;4979284;28;20034;-77
2022/01/06 09:02:51;;;;;;;0.70;0.20;;;2.00;95.60;;;;;;5012388;28;20117;-76
2022/01/06 09:05:19;;;;;;;0.20;0.10;;;2.00;95.60;;;;;;4978989;28;20096;-77
2022/01/06 09:07:46;;;;;;;4.13;0.50;;;2.10;95.60;;;;;;4979077;28;20049;-76
2022/01/06 09:10:16;;;;;;;4.57;0.50;;;2.10;95.90;;;;;;4979287;28;20046;-76
2022/01/06 09:12:45;;;;;;;5.03;0.68;;;2.20;95.60;;;;;;4978630;28;20116;-76
2022/01/06 09:15:12;;;;;;;2.58;0.50;;;2.20;95.60;;;;;;4979556;28;20433;-77
2022/01/06 09:17:39;;;;;;;3.03;0.50;;;2.20;95.50;;;;;;4979413;28;20420;-76
2022/01/06 09:20:07;;;;;;;2.75;0.40;;;2.30;95.50;;;;;;4979217;28;20042;-77
2022/01/06 09:22:42;;;;;;;4.60;1.05;;;2.30;95.50;;;;;;4995117;28;20046;-77
2022/01/06 09:25:11;;;;;;;6.10;1.57;;;2.30;95.50;;;;;;4995397;28;20392;-75
2022/01/06 09:27:39;;;;;;;6.25;2.25;;;2.40;95.50;;;;;;5011477;28;20069;-77
2022/01/06 09:30:07;;;;;;;7.65;2.40;;;2.40;95.50;;;;;;4995237;28;20053;-77
2022/01/06 09:32:34;;;;;;;7.70;2.40;;;2.50;95.50;;;;;;4962834;28;20046;-78
2022/01/06 09:35:01;;;;;;;6.20;2.20;;;2.50;95.40;;;;;;4978760;28;20046;-78
2022/01/06 09:37:29;;;;;;;6.32;3.05;;;2.50;95.40;;;;;;4944690;28;20047;-77
2022/01/06 09:39:56;;;;;;;7.18;2.97;;;2.50;95.40;;;;;;4979343;28;20053;-78
2022/01/06 09:42:24;;;;;;;6.68;2.72;;;2.60;95.40;;;;;;4995138;28;20417;-79
2022/01/06 09:44:59;;;;;;;5.82;2.08;;;2.60;95.40;;;;;;4963898;28;20092;-78
2022/01/06 09:47:39;;;;;;;5.22;2.38;;;2.60;95.40;;;;;;4964971;28;20049;-78
2022/01/06 09:50:09;;;;;;;5.50;1.58;;;2.70;95.70;;;;;;4996038;28;20046;-77
2022/01/06 09:52:36;;;;;;;4.88;1.70;;;2.70;95.40;;;;;;4977783;28;20042;-77
2022/01/06 09:55:05;;;;;;;4.70;1.35;;;2.70;95.40;;;;;;4995125;28;20070;-76
2022/01/06 09:57:33;;;;;;;5.30;1.23;;;2.70;95.40;;;;;;4962874;28;20412;-76
2022/01/06 10:00:01;;;;;;;2.85;1.17;;;2.80;95.40;;;;;;4946149;28;20552;-76
2022/01/06 10:02:39;;;;;;;5.10;1.00;;;2.80;95.40;;;;;;4979572;28;20046;-77
2022/01/06 10:05:08;;;;;;;5.05;1.02;;;2.80;95.30;;;;;;4995494;28;20042;-77
2022/01/06 10:07:38;;;;;;;3.17;0.70;;;2.90;95.40;;;;;;4978715;28;20042;-76
2022/01/06 10:10:13;;;;;;;2.95;0.52;;;2.90;95.30;;;;;;4978651;28;20069;-76
2022/01/06 10:12:41;;;;;;;3.05;0.63;;;2.90;95.30;;;;;;4996250;28;20082;-77
2022/01/06 10:15:20;;;;;;;3.35;0.82;;;3.00;95.40;;;;;;4994826;28;20486;-76
2022/01/06 10:17:47;;;;;;;2.80;0.60;;;3.00;95.30;;;;;;4962865;28;20054;-76
2022/01/06 10:20:17;;;;;;;4.45;0.75;;;3.00;95.30;;;;;;4989935;28;20038;-77
2022/01/06 10:22:55;;;;;;;2.47;0.75;;;3.10;95.30;;;;;;5015565;28;20042;-76
2022/01/06 10:25:24;;;;;;;3.83;0.82;;;3.10;95.30;;;;;;5032385;28;20396;-76
2022/01/06 10:27:56;;;;;;;5.03;1.90;;;3.10;95.20;;;;;;5035340;28;20167;-77
2022/01/06 10:30:26;;;;;;;3.72;0.80;;;3.10;95.20;;;;;;5001278;28;20366;-76
2022/01/06 10:32:58;;;;;;;3.73;1.57;;;3.20;95.20;;;;;;5017230;28;20485;-76
2022/01/06 10:35:25;;;;;;;2.78;0.50;;;3.20;95.20;;;;;;5034809;28;20076;-76
2022/01/06 10:37:52;;;;;;;5.77;1.20;;;3.30;95.20;;;;;;5017048;28;20053;-76
2022/01/06 10:40:22;;;;;;;4.37;1.37;;;3.30;95.20;;;;;;5001239;28;20049;-77
2022/01/06 10:42:53;;;;;;;5.57;1.23;;;3.30;95.20;;;;;;5034606;28;20132;-77
2022/01/06 10:45:25;;;;;;;3.85;1.00;;;3.40;95.20;;;;;;5017162;28;20037;-76
2022/01/06 10:47:55;;;;;;;7.53;1.13;;;3.40;95.10;;;;;;5017048;28;20136;-77
2022/01/06 10:50:34;;;;;;;3.55;0.73;;;3.50;95.10;;;;;;5016527;28;20045;-77
2022/01/06 10:53:01;;;;;;;3.35;0.90;;;3.50;95.10;;;;;;5016393;28;20042;-76
2022/01/06 10:55:40;;;;;;;1.75;0.70;;;3.60;95.10;;;;;;5016651;28;20049;-77
2022/01/06 10:58:11;;;;;;;2.95;0.47;;;3.60;95.00;;;;;;5016349;28;20119;-76
2022/01/06 11:00:39;;;;;;;2.50;0.50;;;3.60;95.00;;;;;;5015190;28;20073;-76
2022/01/06 11:03:09;;;;;;;2.33;0.60;;;3.60;95.00;;;;;;4979450;28;20184;-77
2022/01/06 11:05:39;;;;;;;5.32;0.93;;;3.70;95.10;;;;;;4996543;28;20054;-76
2022/01/06 11:08:07;;;;;;;3.97;1.08;;;3.70;95.10;;;;;;4996967;28;20108;-76
2022/01/06 11:10:45;;;;;;;5.53;0.90;;;3.80;95.00;;;;;;4996762;28;20081;-76
2022/01/06 11:13:14;;;;;;;2.95;0.85;;;3.80;95.00;;;;;;4996609;28;20050;-75
2022/01/06 11:15:41;;;;;;;3.85;0.93;;;3.90;94.90;;;;;;5014225;28;20050;-77
2022/01/06 11:18:09;;;;;;;2.80;0.65;;;3.90;94.90;;;;;;4996842;28;20112;-76
2022/01/06 11:20:37;;;;;;;6.47;1.38;;;4.00;95.00;;;;;;4996517;28;20046;-76
2022/01/06 11:23:04;;;;;;;4.30;1.15;;;4.00;95.00;;;;;;4996590;28;20133;-75
2022/01/06 11:25:35;;;;;;;2.67;0.70;;;4.00;94.90;;;;;;4996580;28;20061;-76
2022/01/06 11:28:29;;;;;;;6.20;0.90;;;4.10;94.90;;;;;;4996106;28;20045;-76
2022/01/06 11:30:57;;;;;;;4.43;0.77;;;4.10;94.90;;;;;;4996447;28;20046;-76
2022/01/06 11:33:26;;;;;;;2.30;0.73;;;4.10;94.90;;;;;;4980753;28;20065;-76
2022/01/06 11:35:56;;;;;;;5.32;0.80;;;4.20;94.90;;;;;;4964065;28;20081;-75
2022/01/06 11:38:26;;;;;;;2.50;0.80;;;4.20;94.90;;;;;;4995705;28;20053;-76
2022/01/06 11:41:16;;;;;;;4.80;1.23;;;4.20;94.80;;;;;;5010655;28;20081;-76
2022/01/06 11:43:45;;;;;;;4.60;0.95;;;4.30;94.80;;;;;;4995892;28;20065;-76
2022/01/06 11:46:13;;;;;;;3.13;0.70;;;4.30;94.80;;;;;;4994805;28;20038;-75
2022/01/06 11:48:54;;;;;;;3.65;0.85;;;4.30;94.80;;;;;;4976178;28;20042;-76
2022/01/06 11:51:30;;;;;;;4.75;1.17;;;4.40;94.80;;;;;;4993475;28;20070;-76
2022/01/06 11:53:59;;;;;;;2.53;0.55;;;4.40;94.80;;;;;;4976201;28;20046;-76
2022/01/06 11:56:28;;;;;;;2.15;0.70;;;4.40;94.80;;;;;;4976741;28;20101;-75
2022/01/06 11:59:05;;;;;;;4.47;1.30;;;4.50;94.80;;;;;;4976361;28;20046;-75
2022/01/06 12:01:49;;;;;;;3.28;0.85;;;4.50;94.70;;;;;;4975671;28;20101;-75
2022/01/06 12:04:21;;;;;;;3.55;0.60;;;4.60;94.70;;;;;;4976792;28;20038;-75
2022/01/06 12:07:03;;;;;;;2.15;0.52;;;4.60;94.70;;;;;;4976834;28;20051;-75
2022/01/06 12:09:33;;;;;;;2.38;0.60;;;4.60;94.60;;;;;;4976346;28;20050;-75
2022/01/06 12:12:02;;;;;;;3.35;0.68;;;4.60;94.70;;;;;;4976112;28;20105;-75
2022/01/06 12:14:29;;;;;;;2.88;0.85;;;4.60;94.70;;;;;;4994507;28;20556;-75
2022/01/06 12:17:04;;;;;;;3.30;0.50;;;4.60;94.70;;;;;;4964171;28;20045;-75
2022/01/06 12:19:31;;;;;;;1.92;0.55;;;4.70;94.60;;;;;;4995390;28;20072;-75
2022/01/06 12:21:58;;;;;;;1.52;0.50;;;4.70;94.60;;;;;;4995490;28;20413;-75
2022/01/06 12:24:31;;;;;;;1.52;0.50;;;4.70;94.60;;;;;;4965045;28;20399;-75
2022/01/06 12:27:03;;;;;;;3.10;0.88;;;4.70;94.60;;;;;;4979783;28;20046;-75
2022/01/06 12:29:34;;;;;;;4.60;1.20;;;4.80;94.60;;;;;;4979318;28;20100;-75
2022/01/06 12:32:11;;;;;;;4.40;0.90;;;4.80;94.60;;;;;;4963416;28;20057;-75
2022/01/06 12:34:40;;;;;;;3.53;1.13;;;4.90;94.50;;;;;;5012888;28;20056;-76
2022/01/06 12:37:08;;;;;;;3.42;0.85;;;5.00;94.50;;;;;;4979365;28;20046;-76
2022/01/06 12:39:35;;;;;;;3.38;0.80;;;5.00;94.50;;;;;;4995659;28;20038;-74
2022/01/06 12:42:05;;;;;;;2.97;0.90;;;5.00;94.50;;;;;;5000358;28;20054;-77
2022/01/06 12:44:32;;;;;;;3.72;0.73;;;5.10;94.50;;;;;;4962894;28;20079;-76
2022/01/06 12:47:04;;;;;;;3.17;0.90;;;5.20;94.70;;;;;;4948127;28;20557;-76
2022/01/06 12:49:31;;;;;;;2.13;0.52;;;5.10;94.40;;;;;;4945017;28;20097;-76
2022/01/06 12:51:58;;;;;;;4.28;1.00;;;5.20;94.40;;;;;;4950456;28;20051;-76
2022/01/06 12:54:26;;;;;;;3.47;1.13;;;5.20;94.40;;;;;;4959589;28;20054;-75
2022/01/06 12:57:00;;;;;;;3.22;1.20;;;5.30;94.30;;;;;;4963456;28;20061;-75
2022/01/06 12:59:41;;;;;;;2.97;1.00;;;5.30;94.60;;;;;;4989983;28;20058;-76
2022/01/06 13:02:11;;;;;;;3.42;0.93;;;5.30;94.30;;;;;;4972193;28;20706;-76
2022/01/06 13:04:48;;;;;;;2.35;0.85;;;5.40;94.30;;;;;;4968872;28;20046;-76
2022/01/06 13:07:17;;;;;;;3.08;0.63;;;5.40;94.30;;;;;;4977055;28;20042;-75
2022/01/06 13:09:46;;;;;;;1.25;0.60;;;5.40;94.30;;;;;;4946273;28;20346;-75
2022/01/06 13:12:22;;;;;;;2.30;0.50;;;5.40;94.30;;;;;;4966659;28;20512;-76
2022/01/06 13:14:52;;;;;;;4.97;1.20;;;5.40;94.30;;;;;;4980597;28;20663;-76
2022/01/06 13:17:23;;;;;;;4.18;0.90;;;5.50;94.30;;;;;;4973506;28;20062;-76
2022/01/06 13:19:59;;;;;;;2.80;0.82;;;5.60;94.20;;;;;;4988252;28;20038;-76
2022/01/06 13:22:36;;;;;;;1.75;0.60;;;5.70;94.10;;;;;;4962151;28;20042;-77
2022/01/06 13:25:10;;;;;;;3.92;0.70;;;5.80;94.10;;;;;;4988304;28;20046;-75
2022/01/06 13:27:38;;;;;;;6.28;1.45;;;5.90;94.00;;;;;;4981124;28;20054;-76
2022/01/06 13:30:07;;;;;;;2.47;0.90;;;6.00;93.90;;;;;;4961028;28;20188;-76
2022/01/06 13:32:34;;;;;;;3.58;0.68;;;6.20;93.80;;;;;;4971035;28;20128;-76
2022/01/06 13:35:06;;;;;;;3.30;0.77;;;6.30;93.70;;;;;;4956102;28;20054;-75
2022/01/06 13:37:37;;;;;;;6.53;0.77;;;6.30;93.70;;;;;;4991116;28;20133;-76
2022/01/06 13:40:10;;;;;;;5.35;1.33;;;6.30;93.60;;;;;;4990157;28;20109;-77
2022/01/06 13:42:40;;;;;;;4.03;0.90;;;6.20;93.50;;;;;;4985371;28;20093;-76
2022/01/06 13:45:52;;;;;;;4.28;1.15;;;6.20;93.50;;;;;;4964254;28;20046;-77
2022/01/06 13:48:10;;;;;;;4.68;0.98;;;6.20;93.50;;;;;;4968557;28;20119;-76
2022/01/06 13:53:31;;;;;;;6.05;1.33;;;6.10;93.50;;;;;;4983568;28;20510;-76
2022/01/06 13:56:02;;;;;;;9.75;1.58;;;6.20;93.30;;;;;;4982741;28;20046;-76
2022/01/06 13:58:29;;;;;;;7.07;1.25;;;6.10;93.20;;;;;;4975287;28;20058;-75
2022/01/06 14:00:56;;;;;;;4.97;1.13;;;6.10;93.20;;;;;;4984980;28;21159;-76
2022/01/06 14:03:31;;;;;;;4.95;1.08;;;6.00;93.30;;;;;;4994439;28;20148;-76
2022/01/06 14:06:00;;;;;;;4.82;0.80;;;6.00;93.30;;;;;;4965284;28;20424;-75
2022/01/06 14:08:28;;;;;;;7.68;1.67;;;5.90;93.30;;;;;;4976403;28;20054;-76
2022/01/06 14:10:55;;;;;;;4.32;1.00;;;5.90;93.50;;;;;;4970825;28;20062;-75
2022/01/06 14:13:22;;;;;;;5.45;1.15;;;5.90;93.20;;;;;;4972976;28;20053;-77
2022/01/06 14:15:50;;;;;;;5.28;1.00;;;5.90;93.20;;;;;;4987369;28;20046;-77
2022/01/06 14:18:18;;;;;;;5.78;1.30;;;5.90;93.20;;;;;;4966058;28;20043;-77
2022/01/06 14:20:46;;;;;;;5.18;0.93;;;5.90;93.20;;;;;;4957226;28;20053;-76
2022/01/06 14:23:14;;;;;;;7.82;1.10;;;5.90;93.10;;;;;;4982431;28;20103;-76
2022/01/06 14:25:42;;;;;;;7.90;1.23;;;5.90;93.00;;;;;;4982678;28;20081;-77
2022/01/06 14:28:09;;;;;;;6.15;0.70;;;5.90;92.90;;;;;;4982552;28;20796;-76
2022/01/06 14:30:36;;;;;;;4.05;1.08;;;5.90;92.90;;;;;;4981063;28;20046;-77
2022/01/06 14:33:05;;;;;;;3.60;0.68;;;5.90;93.00;;;;;;4957928;28;20057;-77
2022/01/06 14:35:33;;;;;;;3.65;0.52;;;5.80;92.90;;;;;;4977511;28;20871;-77
2022/01/06 14:38:01;;;;;;;3.40;0.73;;;5.80;93.00;;;;;;4980060;28;20055;-77
2022/01/06 14:40:29;;;;;;;2.70;0.52;;;5.80;93.00;;;;;;4986214;28;20061;-77
2022/01/06 14:43:09;;;;;;;3.83;0.63;;;5.80;93.00;;;;;;4977174;28;20062;-76
2022/01/06 14:45:36;;;;;;;2.58;0.50;;;5.70;93.10;;;;;;4963802;28;20574;-77
2022/01/06 14:48:03;;;;;;;2.85;0.47;;;5.70;93.10;;;;;;4964645;28;20061;-77
2022/01/06 14:50:31;;;;;;;3.83;0.60;;;5.60;93.10;;;;;;4992125;28;20042;-76
2022/01/06 14:52:58;;;;;;;1.73;0.35;;;5.60;93.20;;;;;;4960698;28;20066;-76
2022/01/06 14:55:25;;;;;;;2.08;0.70;;;5.60;93.20;;;;;;4960628;28;20073;-76
2022/01/06 14:57:52;;;;;;;5.10;0.50;;;5.50;93.30;;;;;;4985115;28;20133;-75
2022/01/06 15:00:20;;;;;;;1.95;0.40;;;5.50;93.30;;;;;;4979330;28;20038;-77
2022/01/06 15:02:47;;;;;;;0.68;0.20;;;5.40;93.30;;;;;;4981965;28;20073;-76
2022/01/06 15:05:21;;;;;;;3.65;0.50;;;5.40;93.40;;;;;;4995661;28;20046;-76
2022/01/06 15:07:49;;;;;;;2.58;0.52;;;5.30;93.40;;;;;;4959449;28;20170;-76
2022/01/06 15:10:16;;;;;;;2.08;0.32;;;5.30;93.50;;;;;;4980468;28;20058;-77
2022/01/06 15:12:53;;;;;;;4.25;0.43;;;5.20;93.50;;;;;;4968840;28;20398;-77
2022/01/06 15:15:22;;;;;;;3.35;0.68;;;5.20;93.50;;;;;;4963505;28;20051;-77
2022/01/06 15:17:50;;;;;;;4.35;0.57;;;5.20;93.60;;;;;;4982439;28;20482;-77
2022/01/06 15:20:17;;;;;;;3.92;0.63;;;5.20;93.60;;;;;;4984639;28;20039;-75
2022/01/06 15:22:45;;;;;;;2.13;0.40;;;5.20;93.50;;;;;;4984621;28;20096;-76
2022/01/06 15:25:12;;;;;;;3.22;0.50;;;5.10;93.60;;;;;;4967483;28;20113;-77
2022/01/06 15:27:43;;;;;;;2.50;0.30;;;5.10;93.60;;;;;;4980800;28;20104;-79
2022/01/06 15:30:11;;;;;;;1.50;0.35;;;5.10;93.60;;;;;;4964223;28;20065;-76
2022/01/06 15:32:38;;;;;;;1.02;0.30;;;5.00;93.60;;;;;;4944822;28;20062;-75
2022/01/06 15:35:07;;;;;;;1.05;0.43;;;5.00;93.60;;;;;;4968085;28;20189;-76
2022/01/06 15:37:36;;;;;;;2.13;0.45;;;4.90;93.70;;;;;;4979202;28;20054;-75
2022/01/06 15:40:07;;;;;;;2.05;0.30;;;4.90;93.70;;;;;;4967377;28;20037;-75
2022/01/06 15:42:34;;;;;;;0.98;0.30;;;4.80;93.80;;;;;;4995195;28;20061;-76
2022/01/06 15:45:15;;;;;;;0.98;0.20;;;4.80;93.80;;;;;;4963896;28;20847;-77
2022/01/06 15:47:42;;;;;;;0.82;0.20;;;4.70;93.80;;;;;;4965535;28;20055;-77
2022/01/06 15:50:11;;;;;;;1.60;0.20;;;4.70;93.80;;;;;;4971428;28;20094;-78
2022/01/06 15:52:38;;;;;;;2.47;0.28;;;4.70;93.90;;;;;;4965455;28;20050;-77
2022/01/06 15:55:06;;;;;;;2.53;0.20;;;4.60;93.90;;;;;;4990659;28;20049;-78
2022/01/06 15:57:33;;;;;;;1.05;0.30;;;4.70;94.00;;;;;;4970246;28;20898;-77
2022/01/06 16:00:17;;;;;;;0.55;0.20;;;4.70;94.00;;;;;;5001696;28;20058;-77
2022/01/06 16:05:52;;;;;;;0.93;0.20;;;4.60;93.90;;;;;;4921158;29;20404;-77
2022/01/06 16:08:21;;;;;;;2.00;0.20;;;4.50;93.90;;;;;;4894984;29;20553;-78
2022/01/06 16:10:51;;;;;;;0.95;0.20;;;4.50;93.90;;;;;;4945266;28;20046;-79
2022/01/06 16:13:21;;;;;;;1.15;0.10;;;4.50;94.00;;;;;;4960627;28;20051;-78
2022/01/06 16:15:51;;;;;;;0.40;0.10;;;4.40;94.00;;;;;;4960166;28;20125;-77
2022/01/06 16:18:18;;;;;;;1.08;0.25;;;4.30;94.00;;;;;;4963435;28;20050;-77
2022/01/06 16:20:49;;;;;;;1.58;0.30;;;4.30;94.10;;;;;;4956429;28;20129;-77
2022/01/06 16:23:16;;;;;;;0.47;0.20;;;4.20;94.10;;;;;;4954719;28;20093;-78
2022/01/06 16:25:47;;;;;;;0.70;0.20;;;4.10;94.10;;;;;;4971821;28;20140;-79
2022/01/06 16:28:15;;;;;;;0.85;0.30;;;4.10;94.20;;;;;;4974659;28;20054;-78
2022/01/06 16:30:51;;;;;;;1.90;0.30;;;4.00;94.20;;;;;;4938853;28;20520;-77
2022/01/06 16:33:18;;;;;;;0.30;0.10;;;4.00;94.30;;;;;;4975108;28;20046;-76
2022/01/06 16:35:45;;;;;;;1.42;0.30;;;3.90;94.30;;;;;;4979886;28;20137;-77
2022/01/06 16:38:12;;;;;;;0.98;0.40;;;3.90;94.30;;;;;;4959927;28;20054;-78
2022/01/06 16:40:40;;;;;;;0.73;0.30;;;3.80;94.30;;;;;;4963447;28;20548;-77
2022/01/06 16:43:09;;;;;;;1.98;0.40;;;3.90;94.40;;;;;;4997726;28;20038;-77
2022/01/06 16:45:36;;;;;;;2.80;0.70;;;4.00;94.40;;;;;;4996567;28;20041;-77
2022/01/06 16:48:04;;;;;;;4.25;1.35;;;4.00;94.60;;;;;;4999323;28;20037;-77
2022/01/06 16:50:33;;;;;;;4.65;1.95;;;4.10;94.30;;;;;;4997381;28;20419;-78
2022/01/06 16:53:00;;;;;;;5.18;2.05;;;4.20;94.30;;;;;;4981819;28;20045;-79
2022/01/06 16:55:28;;;;;;;7.28;2.28;;;4.30;94.20;;;;;;4993387;28;20046;-77
2022/01/06 16:57:56;;;;;;;5.00;1.83;;;4.30;94.10;;;;;;4970393;28;20084;-77
2022/01/06 17:00:23;;;;;;;4.10;1.92;;;4.30;94.40;;;;;;4970635;28;20043;-76
2022/01/06 17:02:56;;;;;;;4.82;1.70;;;4.30;94.10;;;;;;4966435;28;20474;-76
2022/01/06 17:05:24;;;;;;;4.10;2.13;;;4.30;94.10;;;;;;4995102;28;20038;-77
2022/01/06 17:07:54;;;;;;;4.53;1.88;;;4.40;94.10;;;;;;4967376;28;20041;-76
2022/01/06 17:10:23;;;;;;;4.53;1.88;;;4.50;94.10;;;;;;4982779;28;20647;-77
2022/01/06 17:12:54;;;;;;;3.10;1.30;;;4.50;94.10;;;;;;4993430;28;20104;-77
2022/01/06 17:15:23;;;;;;;3.30;1.25;;;4.50;94.00;;;;;;5007407;28;20067;-77
2022/01/06 17:17:51;;;;;;;3.22;1.10;;;4.50;94.00;;;;;;4979272;28;20561;-76
2022/01/06 17:20:18;;;;;;;3.00;1.27;;;4.50;94.00;;;;;;4995752;28;20394;-77
2022/01/06 17:22:45;;;;;;;3.10;1.67;;;4.50;94.00;;;;;;5010988;28;20078;-76
2022/01/06 17:25:13;;;;;;;3.78;1.30;;;4.40;94.00;;;;;;4967607;28;20039;-75
2022/01/06 17:27:40;;;;;;;3.63;1.20;;;4.30;94.10;;;;;;4996819;28;20042;-76
2022/01/06 17:30:08;;;;;;;3.60;1.42;;;4.20;94.10;;;;;;4990302;28;20053;-76
2022/01/06 17:32:35;;;;;;;4.75;2.30;;;4.20;94.20;;;;;;4996496;28;20502;-76
2022/01/06 17:35:03;;;;;;;5.13;2.55;;;4.20;94.20;;;;;;4967854;28;20061;-77
2022/01/06 17:37:30;;;;;;;4.13;1.75;;;4.20;94.20;;;;;;4972017;28;20047;-76
2022/01/06 17:39:57;;;;;;;5.57;2.70;;;4.20;94.20;;;;;;4989091;28;20557;-77
2022/01/06 17:42:25;;;;;;;6.55;2.83;;;4.20;94.20;;;;;;4992876;28;20516;-75
2022/01/06 17:44:53;;;;;;;6.35;3.45;;;4.20;94.20;;;;;;4975993;28;20046;-79
2022/01/06 17:47:21;;;;;;;5.70;2.40;;;4.20;94.20;;;;;;4980089;28;20370;-80
2022/01/06 17:49:48;;;;;;;8.75;2.97;;;4.20;94.20;;;;;;4971687;28;21041;-80
2022/01/06 17:52:18;;;;;;;8.05;3.33;;;4.20;94.20;;;;;;4947321;28;20457;-80
2022/01/06 17:54:45;;;;;;;7.10;2.60;;;4.20;94.20;;;;;;5001806;28;20046;-84
2022/01/06 17:57:12;;;;;;;9.00;3.40;;;4.30;94.20;;;;;;4991232;28;20050;-81
2022/01/06 17:59:39;;;;;;;8.15;2.92;;;4.20;94.10;;;;;;5001178;28;20107;-78
2022/01/06 18:02:08;;;;;;;6.85;3.38;;;4.20;94.10;;;;;;5002477;28;20046;-77
2022/01/06 18:04:37;;;;;;;6.95;2.50;;;4.30;94.10;;;;;;4983537;28;20140;-72
2022/01/06 18:07:10;;;;;;;10.27;2.67;;;4.30;94.10;;;;;;4979327;28;20406;-80
2022/01/06 18:12:15;;;;;;;5.10;1.88;;;4.30;94.10;;;;;;4990367;28;20506;-78
2022/01/06 18:14:44;;;;;;;5.95;2.55;;;4.30;94.10;;;;;;4997880;28;20037;-79
2022/01/06 18:17:13;;;;;;;4.03;1.95;;;4.30;94.10;;;;;;4993428;28;20048;-80
2022/01/06 18:19:40;;;;;;;6.05;2.45;;;4.30;94.10;;;;;;4963165;28;20053;-83
2022/01/06 18:22:09;;;;;;;7.80;2.25;;;4.30;94.10;;;;;;4966434;28;20160;-79
2022/01/06 18:24:37;;;;;;;11.57;3.85;;;4.30;94.00;;;;;;4980456;28;20073;-79
2022/01/06 18:27:06;;;;;;;6.25;2.80;;;4.30;94.00;;;;;;4980926;28;20509;-79
2022/01/06 18:29:36;;;;;;;6.40;2.80;;;4.30;94.00;;;;;;4975510;28;20136;-79
2022/01/06 18:32:04;;;;;;;7.28;3.00;;;4.30;93.90;;;;;;5001393;28;20085;-80
2022/01/06 18:34:31;;;;;;;6.82;2.35;;;4.40;94.00;;;;;;4984744;28;20061;-80
2022/01/06 18:36:58;;;;;;;6.25;2.20;;;4.30;93.90;;;;;;5000732;28;20054;-79
2022/01/06 18:39:25;;;;;;;5.97;1.98;;;4.40;93.90;;;;;;4986523;28;20054;-80
2022/01/06 18:41:52;;;;;;;8.40;2.72;;;4.40;93.90;;;;;;4978865;28;20078;-80
2022/01/06 18:44:19;;;;;;;11.02;2.97;;;4.30;93.90;;;;;;4958718;28;20097;-77
2022/01/06 18:46:46;;;;;;;9.55;3.30;;;4.30;93.80;;;;;;5013506;28;20588;-78
2022/01/06 18:49:13;;;;;;;8.38;3.03;;;4.40;93.70;;;;;;5002810;28;20088;-80
2022/01/06 18:51:40;;;;;;;7.82;3.22;;;4.30;93.70;;;;;;4980307;28;20238;-79
2022/01/06 18:54:07;;;;;;;7.72;3.13;;;4.40;93.70;;;;;;4964503;28;20062;-78
2022/01/06 18:56:36;;;;;;;12.90;2.90;;;4.40;93.70;;;;;;4959850;28;20112;-78
2022/01/06 18:59:06;;;;;;;11.13;3.33;;;4.40;93.70;;;;;;4970135;28;20064;-79
2022/01/06 19:01:34;;;;;;;6.70;2.45;;;4.30;93.60;;;;;;4990150;28;20055;-81
2022/01/06 19:04:02;;;;;;;9.77;3.03;;;4.40;93.70;;;;;;4986504;28;20141;-79
2022/01/06 19:06:29;;;;;;;11.90;3.58;;;4.30;93.60;;;;;;4972833;28;21305;-79
2022/01/06 19:08:56;;;;;;;10.48;2.83;;;4.30;93.60;;;;;;4975705;28;20050;-80
2022/01/06 19:11:26;;;;;;;10.07;3.47;;;4.30;93.50;;;;;;4999302;28;20053;-78
2022/01/06 19:13:53;;;;;;;8.35;3.03;;;4.30;93.50;;;;;;4971645;28;20121;-78
2022/01/06 19:16:20;;;;;;;7.03;2.72;;;4.30;93.50;;;;;;4980369;28;20053;-78
2022/01/06 19:18:48;;;;;;;8.98;2.50;;;4.30;93.50;;;;;;4973261;28;20043;-78
2022/01/06 19:21:16;;;;;;;10.13;3.35;;;4.30;93.50;;;;;;4948577;28;20052;-78
2022/01/06 19:23:44;;;;;;;10.35;3.90;;;4.30;93.50;;;;;;4976601;28;20740;-76
2022/01/06 19:26:16;;;;;;;12.20;4.47;;;4.30;93.50;;;;;;4977965;28;20046;-78
2022/01/06 19:28:43;;;;;;;11.98;4.57;;;4.30;93.50;;;;;;4988080;28;20052;-78
2022/01/06 19:31:11;;;;;;;10.82;3.78;;;4.30;93.50;;;;;;4997971;28;20046;-78
2022/01/06 19:33:38;;;;;;;12.80;5.43;;;4.30;93.40;;;;;;4983593;28;20053;-77
2022/01/06 19:36:07;;;;;;;12.93;3.67;;;4.30;93.40;;;;;;4985063;28;20048;-77
2022/01/06 19:38:35;;;;;;;14.88;5.13;;;4.20;93.40;;;;;;4992578;28;20050;-78